createdAt,value
2022-07-26T00:02:23.307Z,2.42
2022-07-26T00:07:24.932Z,2.90
2022-07-26T00:12:26.699Z,2.20
2022-07-26T00:17:28.327Z,3.20
2022-07-26T00:22:29.899Z,3.30
2022-07-26T00:27:31.681Z,3.40
2022-07-26T00:32:33.429Z,3.95
2022-07-26T00:37:35.115Z,2.83
2022-07-26T00:42:37.098Z,2.28
2022-07-26T00:47:38.823Z,3.30
2022-07-26T00:52:44.642Z,4.85
2022-07-26T00:57:46.595Z,2.30
2022-07-26T01:02:48.514Z,2.80
2022-07-26T01:07:50.276Z,5.15
2022-07-26T01:12:51.860Z,3.67
2022-07-26T01:17:53.479Z,3.38
2022-07-26T01:22:55.062Z,5.68
2022-07-26T01:27:56.704Z,5.00
2022-07-26T01:32:58.247Z,3.13
2022-07-26T01:38:00.115Z,2.10
2022-07-26T01:43:01.689Z,4.10
2022-07-26T01:48:03.279Z,4.30
2022-07-26T01:53:06.356Z,7.13
2022-07-26T01:58:08.559Z,4.35
2022-07-26T02:03:10.598Z,2.97
2022-07-26T02:08:12.356Z,5.18
2022-07-26T02:13:14.284Z,6.43
2022-07-26T02:18:15.928Z,5.32
2022-07-26T02:23:17.517Z,4.00
2022-07-26T02:28:19.306Z,4.38
2022-07-26T02:33:21.048Z,2.38
2022-07-26T02:38:22.647Z,4.93
2022-07-26T02:43:26.741Z,4.10
2022-07-26T02:48:30.499Z,4.28
2022-07-26T02:53:32.098Z,5.10
2022-07-26T02:58:33.697Z,6.03
2022-07-26T03:03:36.728Z,6.30
2022-07-26T03:08:39.926Z,3.63
2022-07-26T03:13:41.508Z,5.63
2022-07-26T03:18:43.047Z,3.92
2022-07-26T03:23:44.645Z,5.32
2022-07-26T03:28:46.313Z,3.58
2022-07-26T03:33:47.863Z,5.97
2022-07-26T03:38:49.418Z,4.82
2022-07-26T03:43:50.998Z,5.65
2022-07-26T03:48:52.624Z,8.95
2022-07-26T03:53:54.224Z,5.22
2022-07-26T03:58:56.134Z,4.75
2022-07-26T04:03:57.830Z,3.05
2022-07-26T04:08:59.542Z,5.63
2022-07-26T04:14:01.706Z,5.90
2022-07-26T04:19:03.368Z,5.50
2022-07-26T04:24:05.433Z,4.88
2022-07-26T04:29:07.127Z,11.20
2022-07-26T04:34:10.865Z,4.72
2022-07-26T04:39:12.706Z,4.22
2022-07-26T04:44:14.224Z,3.83
2022-07-26T04:49:15.811Z,4.80
2022-07-26T04:54:17.388Z,3.20
2022-07-26T04:59:21.859Z,5.22
2022-07-26T05:04:23.690Z,3.78
2022-07-26T05:09:25.235Z,5.90
2022-07-26T05:14:26.859Z,4.10
2022-07-26T05:19:29.920Z,4.43
2022-07-26T05:24:31.460Z,5.97
2022-07-26T05:29:33.040Z,7.90
2022-07-26T05:34:34.577Z,6.07
2022-07-26T05:39:36.145Z,6.07
2022-07-26T05:44:42.768Z,5.60
2022-07-26T05:49:44.538Z,12.45
2022-07-26T05:54:46.102Z,5.82
2022-07-26T05:59:47.637Z,10.45
2022-07-26T06:04:49.399Z,8.95
2022-07-26T06:09:51.005Z,10.27
2022-07-26T06:14:52.601Z,8.60
2022-07-26T06:19:54.229Z,10.38
2022-07-26T06:24:55.834Z,9.27
2022-07-26T06:29:57.388Z,10.02
2022-07-26T06:34:58.936Z,8.23
2022-07-26T06:40:00.504Z,10.25
2022-07-26T06:45:02.693Z,10.65
2022-07-26T06:50:05.131Z,7.97
2022-07-26T06:55:07.310Z,7.78
2022-07-26T07:00:09.692Z,9.13
2022-07-26T07:05:11.457Z,8.38
2022-07-26T07:10:13.292Z,9.23
2022-07-26T07:15:14.813Z,7.03
2022-07-26T07:20:16.477Z,11.20
2022-07-26T07:25:18.133Z,7.40
2022-07-26T07:30:24.814Z,11.70
2022-07-26T07:35:31.937Z,9.95
2022-07-26T07:40:33.981Z,10.85
2022-07-26T07:45:35.554Z,10.75
2022-07-26T07:50:37.181Z,13.75
2022-07-26T07:55:41.468Z,11.45
2022-07-26T08:00:48.145Z,10.20
2022-07-26T08:05:50.737Z,10.43
2022-07-26T08:10:53.233Z,9.40
2022-07-26T08:15:55.844Z,11.18
2022-07-26T08:20:57.833Z,9.02
2022-07-26T08:26:04.720Z,9.82
2022-07-26T08:31:08.067Z,13.70
2022-07-26T08:36:09.705Z,13.88
2022-07-26T08:41:11.405Z,7.60
2022-07-26T08:46:13.004Z,10.38
2022-07-26T08:51:17.658Z,10.88
2022-07-26T08:56:19.180Z,11.68
2022-07-26T09:01:20.868Z,12.52
2022-07-26T09:06:26.009Z,15.38
2022-07-26T09:11:32.207Z,10.63
2022-07-26T09:16:38.785Z,11.75
2022-07-26T09:21:41.477Z,10.02
2022-07-26T09:26:55.962Z,7.93
2022-07-26T09:32:12.521Z,8.27
2022-07-26T09:37:17.849Z,7.18
2022-07-26T09:42:28.595Z,12.10
2022-07-26T09:47:38.592Z,8.63
2022-07-26T09:52:40.355Z,6.95
2022-07-26T09:57:42.007Z,6.35
2022-07-26T10:02:43.738Z,6.75
2022-07-26T10:07:45.525Z,8.13
2022-07-26T10:12:50.451Z,7.43
2022-07-26T10:17:51.979Z,7.95
2022-07-26T10:22:55.778Z,6.18
2022-07-26T10:27:58.153Z,5.93
2022-07-26T10:33:01.722Z,4.88
2022-07-26T10:38:05.798Z,4.70
2022-07-26T10:43:39.639Z,4.47
2022-07-26T10:48:55.690Z,6.78
2022-07-26T10:54:13.197Z,8.38
2022-07-26T10:59:27.943Z,7.50
2022-07-26T11:04:36.985Z,9.90
2022-07-26T11:09:39.208Z,11.38
2022-07-26T11:14:44.960Z,7.93
2022-07-26T11:19:49.910Z,6.55
2022-07-26T11:24:51.727Z,7.93
2022-07-26T11:29:53.337Z,5.07
2022-07-26T11:35:04.016Z,8.20
2022-07-26T11:40:06.129Z,4.45
2022-07-26T11:45:10.473Z,5.32
2022-07-26T11:50:21.644Z,6.05
2022-07-26T11:55:31.288Z,3.50
2022-07-26T12:00:33.049Z,4.68
2022-07-26T12:05:34.995Z,5.03
2022-07-26T12:10:36.743Z,12.07
2022-07-26T12:16:04.791Z,8.90
2022-07-26T12:21:09.079Z,12.93
2022-07-26T12:26:28.371Z,11.73
2022-07-26T12:31:32.121Z,7.95
2022-07-26T12:36:34.383Z,9.93
2022-07-26T12:41:40.196Z,6.93
2022-07-26T12:46:42.034Z,8.02
2022-07-26T12:51:43.637Z,8.30
2022-07-26T12:56:46.364Z,3.78
2022-07-26T13:01:51.031Z,3.80
2022-07-26T13:06:52.721Z,4.78
2022-07-26T13:11:54.589Z,3.50
2022-07-26T13:16:56.293Z,2.08
2022-07-26T13:21:59.470Z,3.13
2022-07-26T13:27:02.437Z,4.53
2022-07-26T13:32:04.687Z,4.38
2022-07-26T13:37:08.116Z,4.38
2022-07-26T13:42:10.162Z,3.92
2022-07-26T13:47:11.722Z,5.03
2022-07-26T13:52:16.670Z,4.10
2022-07-26T13:57:18.525Z,5.32
2022-07-26T14:02:20.285Z,5.00
2022-07-26T14:07:21.990Z,3.95
2022-07-26T14:12:23.605Z,7.70
2022-07-26T14:17:25.173Z,2.80
2022-07-26T14:22:26.881Z,3.67
2022-07-26T14:27:28.400Z,3.92
2022-07-26T14:32:30.015Z,6.88
2022-07-26T14:37:44.323Z,2.10
2022-07-26T14:42:48.504Z,3.15
2022-07-26T14:47:50.062Z,4.63
2022-07-26T14:52:53.230Z,3.58
2022-07-26T14:57:54.785Z,3.05
2022-07-26T15:02:56.427Z,4.18
2022-07-26T15:08:00.566Z,7.40
2022-07-26T15:13:07.091Z,1.95
2022-07-26T15:18:08.766Z,1.70
2022-07-26T15:23:11.691Z,1.75
2022-07-26T15:28:13.484Z,2.22
2022-07-26T15:33:15.058Z,2.15
2022-07-26T15:38:16.672Z,2.85
2022-07-26T15:43:43.788Z,2.92
2022-07-26T15:48:45.278Z,6.63
2022-07-26T15:53:46.918Z,4.55
2022-07-26T15:58:48.470Z,2.33
2022-07-26T16:03:50.142Z,2.38
2022-07-26T16:09:15.117Z,1.90
2022-07-26T16:14:13.439Z,2.75
2022-07-26T16:19:15.531Z,1.83
2022-07-26T16:24:17.388Z,1.73
2022-07-26T16:29:19.338Z,2.17
2022-07-26T16:34:21.125Z,1.60
2022-07-26T16:39:22.850Z,1.92
2022-07-26T16:44:24.451Z,1.80
2022-07-26T16:49:26.107Z,4.28
2022-07-26T16:54:27.766Z,2.13
2022-07-26T16:59:29.400Z,2.38
2022-07-26T17:04:31.038Z,4.05
2022-07-26T17:09:32.666Z,3.22
2022-07-26T17:14:34.236Z,1.42
2022-07-26T17:19:35.815Z,3.22
2022-07-26T17:24:37.351Z,4.95
2022-07-26T17:29:38.963Z,2.97
2022-07-26T17:34:40.611Z,1.30
2022-07-26T17:39:52.550Z,1.15
2022-07-26T17:44:55.577Z,1.80
2022-07-26T17:50:14.048Z,1.92
2022-07-26T17:55:21.478Z,2.97
2022-07-26T18:00:23.706Z,1.17
2022-07-26T18:05:34.223Z,3.92
2022-07-26T18:10:38.840Z,3.65
2022-07-26T18:15:40.444Z,2.90
2022-07-26T18:20:42.081Z,3.42
2022-07-26T18:25:43.730Z,2.67
2022-07-26T18:30:45.392Z,5.43
2022-07-26T18:35:46.934Z,4.97
2022-07-26T18:40:48.654Z,2.42
2022-07-26T18:45:50.245Z,1.98
2022-07-26T18:50:51.932Z,3.05
2022-07-26T18:55:54.826Z,6.55
2022-07-26T19:00:56.417Z,4.90
2022-07-26T19:05:57.992Z,2.60
2022-07-26T19:10:59.550Z,3.33
2022-07-26T19:16:01.227Z,4.10
2022-07-26T19:21:03.022Z,1.73
2022-07-26T19:26:04.677Z,2.67
2022-07-26T19:31:06.388Z,2.78
2022-07-26T19:36:08.146Z,2.92
2022-07-26T19:41:13.984Z,2.97
2022-07-26T19:46:17.560Z,4.30
2022-07-26T19:51:19.248Z,4.07
2022-07-26T19:56:20.855Z,3.65
2022-07-26T20:01:23.190Z,4.35
2022-07-26T20:06:27.377Z,2.97
2022-07-26T20:11:28.977Z,4.40
2022-07-26T20:16:30.705Z,4.95
2022-07-26T20:21:32.360Z,4.75
2022-07-26T20:26:34.189Z,3.53
2022-07-26T20:31:35.731Z,4.32
2022-07-26T20:36:37.531Z,3.90
2022-07-26T20:41:39.143Z,6.80
2022-07-26T20:46:40.707Z,4.90
2022-07-26T20:51:42.260Z,3.58
2022-07-26T20:56:43.884Z,4.57
2022-07-26T21:01:45.538Z,5.55
2022-07-26T21:06:47.470Z,5.20
2022-07-26T21:11:50.307Z,5.00
2022-07-26T21:16:51.949Z,5.00
2022-07-26T21:21:53.629Z,4.95
2022-07-26T21:26:55.189Z,3.30
2022-07-26T21:31:56.820Z,3.80
2022-07-26T21:36:58.390Z,3.78
2022-07-26T21:42:00.093Z,3.45
2022-07-26T21:47:01.695Z,3.85
2022-07-26T21:52:03.884Z,2.70
2022-07-26T21:57:05.496Z,9.20
2022-07-26T22:02:07.424Z,5.93
2022-07-26T22:07:09.275Z,3.80
2022-07-26T22:12:11.429Z,4.13
2022-07-26T22:17:13.040Z,6.85
2022-07-26T22:22:14.628Z,5.68
2022-07-26T22:27:16.270Z,4.78
2022-07-26T22:32:17.876Z,6.10
2022-07-26T22:37:19.581Z,3.80
2022-07-26T22:42:21.192Z,4.93
2022-07-26T22:47:22.847Z,3.33
2022-07-26T22:52:24.472Z,7.22
2022-07-26T22:57:26.069Z,3.75
2022-07-26T23:02:27.685Z,2.88
2022-07-26T23:07:29.593Z,7.13
2022-07-26T23:12:31.296Z,3.55
2022-07-26T23:17:33.093Z,5.00
2022-07-26T23:22:34.979Z,5.68
2022-07-26T23:27:36.595Z,6.20
2022-07-26T23:32:38.168Z,3.45
2022-07-26T23:37:39.858Z,3.33
2022-07-26T23:42:41.535Z,3.85
2022-07-26T23:47:43.483Z,3.22
2022-07-26T23:52:45.327Z,7.65
2022-07-26T23:57:46.970Z,6.43
